createdAt,value
2023-02-08T00:01:11.143Z,-0.18
2023-02-08T00:03:39.455Z,-0.28
2023-02-08T00:06:07.606Z,-0.35
2023-02-08T00:08:36.174Z,-0.23
2023-02-08T00:11:05.879Z,-0.49
2023-02-08T00:13:34.603Z,-0.69
2023-02-08T00:16:02.789Z,-0.03
2023-02-08T00:18:30.718Z,0.31
2023-02-08T00:20:58.289Z,0.17
2023-02-08T00:23:26.813Z,0.27
2023-02-08T00:25:54.704Z,0.52
2023-02-08T00:28:22.512Z,0.23
2023-02-08T00:30:50.299Z,0.40
2023-02-08T00:33:18.527Z,0.04
2023-02-08T00:35:46.364Z,0.17
2023-02-08T00:38:14.185Z,-0.21
2023-02-08T00:40:42.529Z,-0.11
2023-02-08T00:43:10.466Z,-0.08
2023-02-08T00:45:38.088Z,0.13
2023-02-08T00:48:06.174Z,-0.23
2023-02-08T00:50:33.962Z,-0.02
2023-02-08T00:53:01.547Z,0.25
2023-02-08T00:55:29.443Z,0.12
2023-02-08T00:57:57.059Z,-0.20
2023-02-08T01:00:24.640Z,-0.34
2023-02-08T01:02:52.667Z,-0.53
2023-02-08T01:05:20.397Z,-0.39
2023-02-08T01:07:48.239Z,-0.36
2023-02-08T01:10:18.018Z,-0.35
2023-02-08T01:12:46.092Z,-0.08
2023-02-08T01:15:13.769Z,-0.01
2023-02-08T01:17:41.707Z,0.03
2023-02-08T01:20:12.176Z,-0.43
2023-02-08T01:22:42.841Z,0.14
2023-02-08T01:25:11.279Z,-0.04
2023-02-08T01:27:39.160Z,0.06
2023-02-08T01:30:08.689Z,0.19
2023-02-08T01:32:37.474Z,0.12
2023-02-08T01:35:05.501Z,0.25
2023-02-08T01:37:33.157Z,-0.27
2023-02-08T01:40:01.709Z,-0.43
2023-02-08T01:42:30.671Z,0.01
2023-02-08T01:45:17.602Z,0.33
2023-02-08T01:47:49.129Z,0.34
2023-02-08T01:50:19.974Z,0.10
2023-02-08T01:52:49.078Z,-0.19
2023-02-08T01:55:30.910Z,0.58
2023-02-08T01:58:04.946Z,-0.03
2023-02-08T02:00:32.731Z,-0.33
2023-02-08T02:03:01.893Z,0.16
2023-02-08T02:05:35.092Z,-0.17
2023-02-08T02:08:03.457Z,-0.05
2023-02-08T02:10:33.672Z,0.05
2023-02-08T02:13:34.719Z,-0.03
2023-02-08T02:16:03.354Z,0.33
2023-02-08T02:18:33.625Z,0.08
2023-02-08T02:21:22.172Z,0.04
2023-02-08T02:24:05.907Z,-0.05
2023-02-08T02:26:46.980Z,0.08
2023-02-08T02:29:39.667Z,-0.21
2023-02-08T02:32:42.349Z,-0.15
2023-02-08T02:35:50.778Z,0.06
2023-02-08T02:38:33.310Z,0.03
2023-02-08T02:41:36.318Z,0.27
2023-02-08T02:44:10.046Z,0.05
2023-02-08T02:46:47.625Z,0.05
2023-02-08T02:49:29.100Z,-0.10
2023-02-08T02:52:09.291Z,-0.55
2023-02-08T02:54:58.156Z,-0.59
2023-02-08T02:57:30.501Z,-0.79
2023-02-08T02:59:59.909Z,-0.86
2023-02-08T03:02:28.679Z,-1.05
2023-02-08T03:04:57.804Z,-0.51
2023-02-08T03:07:33.666Z,-0.70
2023-02-08T03:10:37.958Z,-0.68
2023-02-08T03:13:53.972Z,-0.67
2023-02-08T03:16:38.899Z,-0.68
2023-02-08T03:19:20.371Z,-0.79
2023-02-08T03:21:53.847Z,-0.92
2023-02-08T03:24:43.773Z,-0.95
2023-02-08T03:27:24.778Z,-1.22
2023-02-08T03:29:58.276Z,-1.27
2023-02-08T03:32:44.268Z,-1.50
2023-02-08T03:35:20.362Z,-1.42
2023-02-08T03:37:56.148Z,-1.47
2023-02-08T03:40:31.044Z,-1.11
2023-02-08T03:43:03.405Z,-1.21
2023-02-08T03:45:39.815Z,-1.17
2023-02-08T03:48:11.535Z,-1.04
2023-02-08T03:50:40.752Z,-1.03
2023-02-08T03:53:10.917Z,-1.10
2023-02-08T03:55:41.952Z,-0.70
2023-02-08T03:58:18.234Z,-0.57
2023-02-08T04:00:52.104Z,-0.44
2023-02-08T04:03:24.964Z,-0.19
2023-02-08T04:05:52.848Z,-0.49
2023-02-08T04:08:21.975Z,-0.41
2023-02-08T04:10:50.128Z,-0.31
2023-02-08T04:13:17.833Z,-0.63
2023-02-08T04:15:45.759Z,-0.68
2023-02-08T04:18:13.415Z,-0.32
2023-02-08T04:20:41.409Z,-0.37
2023-02-08T04:23:09.396Z,-0.36
2023-02-08T04:25:36.943Z,-0.14
2023-02-08T04:28:05.080Z,-0.01
2023-02-08T04:30:33.579Z,-0.14
2023-02-08T04:33:01.299Z,-0.44
2023-02-08T04:35:29.273Z,-0.12
2023-02-08T04:37:57.291Z,-0.32
2023-02-08T04:40:24.972Z,-0.44
2023-02-08T04:42:52.679Z,-0.38
2023-02-08T04:45:20.674Z,-0.28
2023-02-08T04:47:48.510Z,-0.26
2023-02-08T04:50:16.757Z,-0.06
2023-02-08T04:52:44.720Z,-0.27
2023-02-08T04:55:12.804Z,-0.10
2023-02-08T04:57:40.351Z,-0.32
2023-02-08T05:00:10.690Z,-0.54
2023-02-08T05:02:38.805Z,-0.58
2023-02-08T05:05:06.687Z,-0.44
2023-02-08T05:07:34.603Z,-0.66
2023-02-08T05:10:04.549Z,-1.07
2023-02-08T05:12:32.110Z,-0.54
2023-02-08T05:15:00.024Z,-0.31
2023-02-08T05:17:27.688Z,-0.80
2023-02-08T05:19:55.731Z,-0.67
2023-02-08T05:22:23.680Z,-0.68
2023-02-08T05:24:51.374Z,-0.84
2023-02-08T05:27:19.108Z,-0.70
2023-02-08T05:29:50.585Z,-0.68
2023-02-08T05:32:18.679Z,-0.82
2023-02-08T05:34:46.840Z,-0.80
2023-02-08T05:37:14.723Z,-0.80
2023-02-08T05:39:42.575Z,-0.67
2023-02-08T05:42:10.315Z,-0.77
2023-02-08T05:44:38.371Z,-0.99
2023-02-08T05:47:06.114Z,-1.14
2023-02-08T05:49:33.767Z,-0.66
2023-02-08T05:52:01.769Z,-0.97
2023-02-08T05:54:29.351Z,-0.96
2023-02-08T05:56:56.943Z,-0.90
2023-02-08T05:59:24.999Z,-0.99
2023-02-08T06:01:52.635Z,-0.83
2023-02-08T06:04:20.525Z,-1.12
2023-02-08T06:06:48.259Z,-1.11
2023-02-08T06:09:16.093Z,-1.45
2023-02-08T06:11:43.985Z,-1.37
2023-02-08T06:14:11.795Z,-1.50
2023-02-08T06:16:39.454Z,-1.55
2023-02-08T06:19:07.403Z,-1.41
2023-02-08T06:21:35.125Z,-1.41
2023-02-08T06:24:04.052Z,-1.58
2023-02-08T06:26:32.086Z,-1.45
2023-02-08T06:29:00.998Z,-1.53
2023-02-08T06:31:28.760Z,-1.42
2023-02-08T06:33:56.749Z,-1.40
2023-02-08T06:36:24.428Z,-1.35
2023-02-08T06:38:52.074Z,-1.29
2023-02-08T06:41:20.186Z,-1.37
2023-02-08T06:43:48.268Z,-1.34
2023-02-08T06:46:15.874Z,-1.08
2023-02-08T06:48:43.759Z,-1.10
2023-02-08T06:51:11.380Z,-1.15
2023-02-08T06:53:39.092Z,-0.99
2023-02-08T06:56:07.384Z,-1.16
2023-02-08T06:58:35.117Z,-1.00
2023-02-08T07:01:02.762Z,-0.76
2023-02-08T07:03:30.890Z,-0.83
2023-02-08T07:06:04.973Z,-0.80
2023-02-08T07:08:34.537Z,-0.62
2023-02-08T07:11:10.078Z,-0.55
2023-02-08T07:13:39.110Z,-0.60
2023-02-08T07:16:08.184Z,-0.65
2023-02-08T07:18:36.309Z,-0.69
2023-02-08T07:21:04.851Z,-0.34
2023-02-08T07:23:32.470Z,-0.51
2023-02-08T07:26:02.042Z,-0.46
2023-02-08T07:28:30.350Z,0.04
2023-02-08T07:30:58.206Z,-0.09
2023-02-08T07:33:26.622Z,-0.18
2023-02-08T07:35:54.638Z,-0.03
2023-02-08T07:38:22.295Z,0.10
2023-02-08T07:40:49.969Z,0.24
2023-02-08T07:43:17.869Z,0.30
2023-02-08T07:45:46.042Z,0.40
2023-02-08T07:48:13.576Z,0.55
2023-02-08T07:50:41.706Z,0.43
2023-02-08T07:53:09.511Z,0.43
2023-02-08T07:55:37.143Z,0.26
2023-02-08T07:58:05.192Z,0.23
2023-02-08T08:00:33.030Z,0.61
2023-02-08T08:03:00.933Z,0.73
2023-02-08T08:05:28.579Z,0.64
2023-02-08T08:07:56.234Z,1.01
2023-02-08T08:10:25.284Z,1.14
2023-02-08T08:12:52.861Z,0.85
2023-02-08T08:15:20.510Z,0.83
2023-02-08T08:17:48.380Z,0.93
2023-02-08T08:20:19.931Z,1.13
2023-02-08T08:22:48.855Z,1.08
2023-02-08T08:25:16.708Z,1.23
2023-02-08T08:27:44.444Z,1.24
2023-02-08T08:30:17.434Z,1.29
2023-02-08T08:32:49.485Z,1.55
2023-02-08T08:35:17.531Z,1.82
2023-02-08T08:37:45.322Z,1.61
2023-02-08T08:40:13.148Z,1.43
2023-02-08T08:42:42.475Z,1.28
2023-02-08T08:45:10.760Z,1.67
2023-02-08T08:47:38.403Z,1.77
2023-02-08T08:50:07.066Z,1.93
2023-02-08T08:52:34.692Z,1.59
2023-02-08T08:55:02.462Z,1.84
2023-02-08T08:57:30.572Z,1.31
2023-02-08T08:59:58.734Z,1.28
2023-02-08T09:02:26.483Z,1.59
2023-02-08T09:04:54.518Z,1.64
2023-02-08T09:07:22.203Z,1.57
2023-02-08T09:09:51.358Z,1.54
2023-02-08T09:12:19.285Z,1.31
2023-02-08T09:14:46.868Z,1.62
2023-02-08T09:17:14.482Z,1.63
2023-02-08T09:19:43.636Z,1.62
2023-02-08T09:22:11.492Z,1.66
2023-02-08T09:24:40.137Z,1.69
2023-02-08T09:27:08.123Z,1.72
2023-02-08T09:29:36.372Z,1.87
2023-02-08T09:32:04.134Z,2.08
2023-02-08T09:34:32.161Z,2.25
2023-02-08T09:36:59.843Z,2.32
2023-02-08T09:39:27.965Z,2.58
2023-02-08T09:42:17.434Z,2.51
2023-02-08T09:45:00.172Z,2.40
2023-02-08T09:47:43.085Z,2.89
2023-02-08T09:50:25.007Z,2.92
2023-02-08T09:53:04.228Z,2.86
2023-02-08T09:55:41.059Z,2.84
2023-02-08T09:58:24.409Z,2.93
2023-02-08T10:00:54.042Z,2.99
2023-02-08T10:03:33.767Z,2.81
2023-02-08T10:06:03.560Z,2.81
2023-02-08T10:08:35.596Z,3.04
2023-02-08T10:11:45.019Z,3.27
2023-02-08T10:14:31.670Z,3.19
2023-02-08T10:17:02.366Z,3.13
2023-02-08T10:20:04.095Z,2.96
2023-02-08T10:22:44.011Z,3.26
2023-02-08T10:25:27.490Z,3.28
2023-02-08T10:28:40.280Z,3.30
2023-02-08T10:31:25.557Z,3.16
2023-02-08T10:33:57.620Z,3.34
2023-02-08T10:36:29.652Z,3.56
2023-02-08T10:38:59.105Z,3.76
2023-02-08T10:41:35.594Z,3.40
2023-02-08T10:44:22.573Z,3.54
2023-02-08T10:47:09.966Z,3.60
2023-02-08T10:49:41.074Z,3.52
2023-02-08T10:52:09.839Z,3.21
2023-02-08T10:54:37.478Z,3.25
2023-02-08T10:57:14.804Z,3.61
2023-02-08T10:59:55.262Z,3.66
2023-02-08T11:02:27.261Z,3.69
2023-02-08T11:05:14.919Z,3.83
2023-02-08T11:07:42.599Z,3.67
2023-02-08T11:10:20.449Z,3.63
2023-02-08T11:13:00.850Z,3.49
2023-02-08T11:15:51.879Z,3.55
2023-02-08T11:18:30.905Z,3.50
2023-02-08T11:21:04.920Z,3.38
2023-02-08T11:23:36.060Z,3.66
2023-02-08T11:26:18.970Z,3.51
2023-02-08T11:28:59.593Z,3.42
2023-02-08T11:31:28.682Z,3.22
2023-02-08T11:34:09.225Z,3.34
2023-02-08T11:36:47.121Z,3.35
2023-02-08T11:39:24.233Z,3.33
2023-02-08T11:41:56.081Z,3.30
2023-02-08T11:44:27.300Z,3.65
2023-02-08T11:46:56.841Z,3.76
2023-02-08T11:49:28.614Z,3.63
2023-02-08T11:51:57.090Z,3.80
2023-02-08T11:54:40.942Z,3.81
2023-02-08T11:57:15.942Z,3.76
2023-02-08T11:59:43.949Z,3.83
2023-02-08T12:02:37.490Z,3.68
2023-02-08T12:05:14.045Z,3.67
2023-02-08T12:08:04.146Z,3.50
2023-02-08T12:10:57.092Z,3.38
2023-02-08T12:13:47.808Z,3.62
2023-02-08T12:16:36.806Z,3.31
2023-02-08T12:19:33.813Z,3.58
2023-02-08T12:22:09.781Z,3.40
2023-02-08T12:24:56.827Z,3.33
2023-02-08T12:27:49.095Z,3.59
2023-02-08T12:30:29.747Z,3.38
2023-02-08T12:33:06.201Z,3.30
2023-02-08T12:36:11.455Z,3.41
2023-02-08T12:39:17.775Z,3.47
2023-02-08T12:42:23.527Z,3.53
2023-02-08T12:45:32.000Z,3.44
2023-02-08T12:48:13.852Z,3.68
2023-02-08T12:50:49.373Z,3.54
2023-02-08T12:53:22.788Z,3.46
2023-02-08T12:55:53.797Z,3.19
2023-02-08T12:58:25.737Z,3.24
2023-02-08T13:00:57.942Z,3.21
2023-02-08T13:03:50.404Z,3.09
2023-02-08T13:06:24.072Z,3.12
2023-02-08T13:09:01.719Z,3.19
2023-02-08T13:11:38.877Z,3.29
2023-02-08T13:14:21.750Z,3.20
2023-02-08T13:16:55.089Z,3.18
2023-02-08T13:20:00.362Z,3.15
2023-02-08T13:22:37.335Z,3.08
2023-02-08T13:25:14.601Z,3.14
2023-02-08T13:27:42.673Z,3.16
2023-02-08T13:30:21.192Z,3.12
2023-02-08T13:32:50.771Z,3.19
2023-02-08T13:35:24.881Z,3.38
2023-02-08T13:38:01.047Z,3.42
2023-02-08T13:40:32.391Z,3.54
2023-02-08T13:43:02.432Z,3.27
2023-02-08T13:45:34.376Z,3.27
2023-02-08T13:48:05.626Z,3.33
2023-02-08T13:50:56.106Z,3.12
2023-02-08T13:53:39.635Z,3.17
2023-02-08T13:56:12.305Z,3.25
2023-02-08T13:58:49.296Z,2.98
2023-02-08T14:01:24.386Z,3.25
2023-02-08T14:04:07.758Z,3.26
2023-02-08T14:06:50.992Z,3.39
2023-02-08T14:09:44.161Z,3.46
2023-02-08T14:12:24.041Z,3.36
2023-02-08T14:15:16.660Z,3.09
2023-02-08T14:17:46.722Z,3.10
2023-02-08T14:20:28.160Z,2.92
2023-02-08T14:22:59.879Z,3.13
2023-02-08T14:25:38.820Z,2.87
2023-02-08T14:28:08.485Z,3.07
2023-02-08T14:30:39.075Z,3.11
2023-02-08T14:33:07.521Z,3.17
2023-02-08T14:35:50.372Z,3.04
2023-02-08T14:38:24.253Z,3.02
2023-02-08T14:40:57.443Z,3.09
2023-02-08T14:43:35.780Z,3.14
2023-02-08T14:46:37.553Z,3.06
2023-02-08T14:49:13.142Z,3.04
2023-02-08T14:51:47.205Z,2.88
2023-02-08T14:54:22.637Z,3.02
2023-02-08T14:56:58.455Z,2.86
2023-02-08T14:59:34.584Z,2.82
2023-02-08T15:02:11.461Z,2.92
2023-02-08T15:04:44.656Z,2.92
2023-02-08T15:07:36.953Z,3.08
2023-02-08T15:10:11.545Z,3.07
2023-02-08T15:12:49.331Z,2.92
2023-02-08T15:15:45.867Z,2.93
2023-02-08T15:18:20.736Z,3.00
2023-02-08T15:21:03.164Z,3.05
2023-02-08T15:23:31.092Z,2.81
2023-02-08T15:26:21.127Z,3.06
2023-02-08T15:28:48.760Z,2.80
2023-02-08T15:31:23.181Z,2.87
2023-02-08T15:33:54.096Z,2.80
2023-02-08T15:36:21.929Z,2.87
2023-02-08T15:38:49.673Z,2.80
2023-02-08T15:41:29.359Z,2.99
2023-02-08T15:44:03.360Z,2.80
2023-02-08T15:46:32.229Z,2.68
2023-02-08T15:49:02.047Z,2.75
2023-02-08T15:51:30.195Z,2.80
2023-02-08T15:53:58.150Z,3.00
2023-02-08T15:56:40.776Z,2.85
2023-02-08T15:59:20.873Z,2.83
2023-02-08T16:01:50.009Z,3.08
2023-02-08T16:04:18.320Z,2.77
2023-02-08T16:06:55.107Z,2.58
2023-02-08T16:09:27.538Z,2.26
2023-02-08T16:12:00.719Z,2.39
2023-02-08T16:14:31.219Z,2.38
2023-02-08T16:17:02.483Z,2.26
2023-02-08T16:19:33.662Z,2.08
2023-02-08T16:22:25.697Z,2.24
2023-02-08T16:24:55.943Z,2.10
2023-02-08T16:27:29.457Z,1.94
2023-02-08T16:29:59.610Z,1.77
2023-02-08T16:32:31.167Z,1.86
2023-02-08T16:35:01.429Z,1.80
2023-02-08T16:37:32.079Z,1.65
2023-02-08T16:40:02.380Z,1.77
2023-02-08T16:42:39.975Z,1.47
2023-02-08T16:45:07.707Z,1.24
2023-02-08T16:47:44.890Z,1.57
2023-02-08T16:50:16.667Z,1.54
2023-02-08T16:52:44.615Z,1.49
2023-02-08T16:55:18.579Z,1.35
2023-02-08T16:57:52.040Z,1.37
2023-02-08T17:00:28.845Z,1.36
2023-02-08T17:02:57.494Z,1.38
2023-02-08T17:05:30.924Z,1.55
2023-02-08T17:07:59.886Z,1.55
2023-02-08T17:10:31.493Z,1.46
2023-02-08T17:13:18.754Z,1.39
2023-02-08T17:15:49.112Z,1.43
2023-02-08T17:18:17.318Z,1.11
2023-02-08T17:20:47.325Z,1.35
2023-02-08T17:23:18.000Z,1.34
2023-02-08T17:25:46.429Z,1.42
2023-02-08T17:28:18.599Z,1.22
2023-02-08T17:30:48.169Z,1.19
2023-02-08T17:33:19.149Z,1.33
2023-02-08T17:35:51.174Z,1.07
2023-02-08T17:38:20.296Z,1.00
2023-02-08T17:40:49.175Z,1.04
2023-02-08T17:43:17.176Z,0.97
2023-02-08T17:45:45.944Z,0.64
2023-02-08T17:48:14.431Z,0.90
2023-02-08T17:50:46.480Z,0.87
2023-02-08T17:53:15.566Z,0.86
2023-02-08T17:55:45.094Z,0.70
2023-02-08T17:58:14.324Z,0.64
2023-02-08T18:00:43.368Z,0.75
2023-02-08T18:03:12.321Z,0.75
2023-02-08T18:05:40.456Z,0.80
2023-02-08T18:08:08.019Z,0.77
2023-02-08T18:10:36.450Z,0.72
2023-02-08T18:13:04.252Z,0.68
2023-02-08T18:15:31.891Z,0.66
2023-02-08T18:18:00.087Z,0.66
2023-02-08T18:20:28.399Z,0.71
2023-02-08T18:22:57.138Z,0.57
2023-02-08T18:25:25.411Z,0.51
2023-02-08T18:27:53.368Z,0.53
2023-02-08T18:30:21.558Z,0.63
2023-02-08T18:32:49.517Z,0.52
2023-02-08T18:35:17.503Z,0.33
2023-02-08T18:37:49.406Z,0.46
2023-02-08T18:40:18.419Z,0.46
2023-02-08T18:42:46.559Z,0.48
2023-02-08T18:45:14.457Z,0.51
2023-02-08T18:47:42.474Z,0.48
2023-02-08T18:50:11.210Z,0.40
2023-02-08T18:52:45.231Z,0.27
2023-02-08T18:55:13.300Z,0.22
2023-02-08T18:57:41.135Z,0.26
2023-02-08T19:00:16.916Z,0.42
2023-02-08T19:02:46.581Z,0.31
2023-02-08T19:05:14.668Z,0.12
2023-02-08T19:07:42.758Z,0.22
2023-02-08T19:10:10.960Z,-0.06
2023-02-08T19:12:41.684Z,0.06
2023-02-08T19:15:09.793Z,0.11
2023-02-08T19:17:37.818Z,0.11
2023-02-08T19:20:06.149Z,0.14
2023-02-08T19:22:34.667Z,0.06
2023-02-08T19:25:03.035Z,-0.18
2023-02-08T19:27:30.956Z,0.14
2023-02-08T19:29:59.550Z,0.13
2023-02-08T19:32:28.849Z,-0.03
2023-02-08T19:34:57.290Z,-0.01
2023-02-08T19:37:25.235Z,0.01
2023-02-08T19:39:54.439Z,-0.15
2023-02-08T19:42:22.485Z,-0.24
2023-02-08T19:44:50.299Z,-0.08
2023-02-08T19:47:19.171Z,-0.11
2023-02-08T19:49:47.421Z,-0.27
2023-02-08T19:52:19.917Z,-0.10
2023-02-08T19:54:49.519Z,-0.27
2023-02-08T19:57:17.630Z,-0.18
2023-02-08T19:59:45.940Z,-0.16
2023-02-08T20:02:15.813Z,-0.31
2023-02-08T20:04:44.504Z,-0.26
2023-02-08T20:07:12.463Z,-0.10
2023-02-08T20:09:41.713Z,-0.28
2023-02-08T20:12:10.048Z,-0.28
2023-02-08T20:14:38.132Z,-0.20
2023-02-08T20:17:06.020Z,-0.14
2023-02-08T20:19:37.385Z,-0.28
2023-02-08T20:22:05.449Z,-0.30
2023-02-08T20:24:33.297Z,-0.31
2023-02-08T20:27:01.868Z,-0.39
2023-02-08T20:29:29.873Z,-0.46
2023-02-08T20:31:58.139Z,-0.48
2023-02-08T20:34:26.836Z,-0.53
2023-02-08T20:37:06.832Z,-0.47
2023-02-08T20:39:36.664Z,-0.43
2023-02-08T20:42:05.149Z,-0.51
2023-02-08T20:44:32.968Z,-0.42
2023-02-08T20:47:01.167Z,-0.44
2023-02-08T20:49:32.121Z,-0.48
2023-02-08T20:52:01.931Z,-0.37
2023-02-08T20:54:30.009Z,-0.32
2023-02-08T20:56:58.283Z,-0.29
2023-02-08T20:59:26.032Z,-0.28
2023-02-08T21:01:54.675Z,-0.09
2023-02-08T21:04:24.195Z,-0.17
2023-02-08T21:06:52.703Z,-0.17
2023-02-08T21:09:21.099Z,-0.21
2023-02-08T21:11:50.019Z,-0.32
2023-02-08T21:14:20.982Z,-0.11
2023-02-08T21:16:51.868Z,-0.13
2023-02-08T21:19:20.816Z,-0.08
2023-02-08T21:22:00.935Z,0.05
2023-02-08T21:24:29.531Z,-0.10
2023-02-08T21:26:57.900Z,-0.10
2023-02-08T21:29:26.060Z,-0.04
2023-02-08T21:31:56.329Z,-0.20
2023-02-08T21:34:24.688Z,-0.18
2023-02-08T21:36:52.678Z,0.03
2023-02-08T21:39:20.970Z,0.21
2023-02-08T21:41:49.513Z,0.29
2023-02-08T21:44:17.221Z,0.39
2023-02-08T21:46:44.963Z,0.15
2023-02-08T21:49:31.706Z,0.33
2023-02-08T21:52:17.995Z,0.08
2023-02-08T21:54:53.014Z,0.48
2023-02-08T21:57:29.545Z,0.29
2023-02-08T21:59:59.350Z,0.23
2023-02-08T22:02:29.701Z,-0.58
2023-02-08T22:05:20.052Z,-0.54
2023-02-08T22:07:54.598Z,-0.33
2023-02-08T22:10:28.779Z,0.01
2023-02-08T22:12:58.770Z,0.12
2023-02-08T22:15:29.223Z,-0.40
2023-02-08T22:17:59.144Z,-0.69
2023-02-08T22:20:29.586Z,-0.27
2023-02-08T22:22:57.954Z,-0.14
2023-02-08T22:25:25.831Z,-0.23
2023-02-08T22:27:53.914Z,-0.59
2023-02-08T22:30:25.082Z,-0.03
2023-02-08T22:32:53.489Z,-0.46
2023-02-08T22:35:21.510Z,-0.13
2023-02-08T22:37:49.238Z,-0.01
2023-02-08T22:40:17.043Z,-0.13
2023-02-08T22:42:46.017Z,-0.42
2023-02-08T22:45:13.695Z,-0.29
2023-02-08T22:47:41.474Z,-0.38
2023-02-08T22:50:10.000Z,-0.38
2023-02-08T22:52:38.006Z,-0.19
2023-02-08T22:55:06.181Z,-0.31
2023-02-08T22:57:35.279Z,-0.51
2023-02-08T23:00:07.133Z,-0.37
2023-02-08T23:02:35.806Z,-0.28
2023-02-08T23:05:03.414Z,-0.27
2023-02-08T23:07:31.102Z,-0.34
2023-02-08T23:09:59.158Z,-0.30
2023-02-08T23:12:27.216Z,-0.19
2023-02-08T23:14:54.821Z,-0.13
2023-02-08T23:17:22.658Z,0.05
2023-02-08T23:19:52.667Z,-0.27
2023-02-08T23:22:20.309Z,0.04
2023-02-08T23:24:48.495Z,-0.25
2023-02-08T23:27:16.143Z,0.06
2023-02-08T23:29:43.865Z,0.04
2023-02-08T23:32:12.143Z,-0.20
2023-02-08T23:34:40.228Z,-0.16
2023-02-08T23:37:07.794Z,-0.06
2023-02-08T23:39:35.801Z,-0.04
2023-02-08T23:42:03.661Z,-0.41
2023-02-08T23:44:31.524Z,-0.15
2023-02-08T23:46:59.486Z,-0.11
2023-02-08T23:49:27.135Z,-0.34
2023-02-08T23:51:55.069Z,-0.35
2023-02-08T23:54:22.958Z,-0.25
2023-02-08T23:56:52.010Z,-0.25
2023-02-08T23:59:19.611Z,-0.12
